Pijnacker, Netherlands
Current Conditions -  °F | °C
As of 3:55 AM on Saturday 22 Nov 2014 (Local Time) from EHRD Reporting Station
Clear Clear  
Wind Chill: 36°   Ceiling: Unl
Heat Index: 41°   Visibility: 5mi
Dew Point: 39°   Wind: 7mph
Humidity: 93%   Direction: 120°ESE
Pressure: 30"   Gusts: NA
Location:  52.02°N, 4.43°E
Report Text: EHRD 220255Z AUTO 12006KT 090V160 8000 NSC 05/04 Q1016 BECMG7000
Loading
Personal Weather Stations






























Interactive Weather Map New forecast layout! Learn more

10-Day Weather Forecast

Advertisements
Track Severe Weather on mobile